Time;durP1;ratioP1;P1;durP2;ratioP2;P2;SDS_P1;SDS_P2;PMS_P1;PMS_P2;Temp;Humidity;BMP_temperature;BMP_pressure;BME280_temperature;BME280_humidity;BME280_pressure;Samples;Min_cycle;Max_cycle;Signal;HPM_P1;HPM_P2
2023/07/06 00:00:12;;;;;;;2.37;1.10;;;21.00;99.90;;;;;;1907244;75;21087;-74
2023/07/06 00:03:03;;;;;;;2.05;1.22;;;21.00;99.90;;;;;;1913637;75;21075;-74
2023/07/06 00:05:55;;;;;;;3.20;1.30;;;21.00;99.90;;;;;;1890806;75;21172;-74
2023/07/06 00:11:30;;;;;;;3.35;1.30;;;21.10;99.90;;;;;;1954498;72;22630;-74
2023/07/06 00:14:23;;;;;;;1.55;1.00;;;21.10;99.90;;;;;;1935016;73;21097;-75
2023/07/06 00:17:16;;;;;;;1.40;1.10;;;21.10;99.90;;;;;;1937471;73;21085;-75
2023/07/06 00:20:12;;;;;;;1.75;1.00;;;21.00;99.90;;;;;;1941109;73;21126;-75
2023/07/06 00:23:04;;;;;;;2.37;1.30;;;21.00;99.90;;;;;;1924370;73;21101;-74
2023/07/06 00:25:55;;;;;;;1.95;1.40;;;21.00;99.90;;;;;;1927708;73;21136;-75
2023/07/06 00:31:32;;;;;;;1.47;1.02;;;21.00;99.90;;;;;;1934533;72;22217;-74
2023/07/06 00:34:25;;;;;;;2.10;1.35;;;21.10;99.90;;;;;;1904743;75;21055;-74
2023/07/06 00:37:16;;;;;;;3.45;1.22;;;21.10;99.90;;;;;;1901827;75;21126;-74
2023/07/06 00:40:13;;;;;;;1.35;1.20;;;21.10;99.90;;;;;;1882129;75;21126;-74
2023/07/06 00:43:06;;;;;;;1.65;1.30;;;21.00;99.90;;;;;;1897664;75;21155;-74
2023/07/06 00:46:03;;;;;;;3.25;1.20;;;20.80;99.90;;;;;;1902224;75;21180;-74
2023/07/06 00:54:21;;;;;;;2.30;1.55;;;20.60;99.90;;;;;;1918474;72;28019;-76
2023/07/06 00:59:56;;;;;;;2.75;1.27;;;20.60;99.90;;;;;;1943806;72;22177;-74
2023/07/06 01:05:28;;;;;;;2.05;1.30;;;20.40;99.90;;;;;;1935906;72;22193;-74
2023/07/06 01:08:23;;;;;;;1.65;1.20;;;20.40;99.90;;;;;;1882851;75;21066;-74
2023/07/06 01:13:54;;;;;;;1.62;1.20;;;20.30;99.90;;;;;;1934727;72;22228;-74
2023/07/06 01:19:48;;;;;;;3.72;1.35;;;20.30;99.90;;;;;;1945189;72;22150;-74
2023/07/06 01:23:03;;;;;;;2.55;1.40;;;20.30;99.90;;;;;;1888691;75;21114;-74
2023/07/06 01:26:07;;;;;;;2.75;1.05;;;20.30;99.90;;;;;;1895925;75;21140;-74
2023/07/06 01:29:21;;;;;;;1.87;1.30;;;20.20;99.90;;;;;;1897746;73;21347;-74
2023/07/06 01:32:15;;;;;;;2.55;1.10;;;20.30;99.90;;;;;;1898829;75;21176;-75
2023/07/06 01:37:49;;;;;;;2.90;1.07;;;20.30;99.90;;;;;;1954892;72;22587;-74
2023/07/06 01:40:42;;;;;;;2.75;1.10;;;20.20;99.90;;;;;;1920598;73;21551;-74
2023/07/06 01:43:33;;;;;;;2.58;1.50;;;20.30;99.90;;;;;;1937447;73;21177;-74
2023/07/06 01:46:24;;;;;;;1.80;1.27;;;20.40;99.90;;;;;;1921565;73;21126;-74
2023/07/06 01:49:15;;;;;;;3.50;1.37;;;20.40;99.90;;;;;;1925167;73;21105;-74
2023/07/06 01:52:10;;;;;;;1.80;1.10;;;20.40;99.90;;;;;;1934343;73;21174;-75
2023/07/06 01:57:53;;;;;;;2.00;1.25;;;20.30;99.90;;;;;;1950864;72;22104;-74
2023/07/06 02:03:30;;;;;;;2.85;1.00;;;20.20;99.90;;;;;;1949687;72;22235;-74
2023/07/06 02:06:22;;;;;;;2.22;1.20;;;20.20;99.90;;;;;;1930596;73;21102;-74
2023/07/06 02:11:54;;;;;;;3.83;1.20;;;20.30;99.90;;;;;;1972384;72;22590;-74
2023/07/06 02:14:48;;;;;;;1.80;1.32;;;20.20;99.90;;;;;;1927606;73;21159;-74
2023/07/06 02:20:20;;;;;;;1.90;1.37;;;20.10;99.90;;;;;;1941087;72;22267;-74
2023/07/06 02:23:11;;;;;;;2.95;1.50;;;20.00;99.90;;;;;;1889869;75;21095;-76
2023/07/06 02:26:04;;;;;;;1.82;1.20;;;20.10;99.90;;;;;;1889438;75;21178;-74
2023/07/06 02:31:35;;;;;;;3.83;1.12;;;20.00;99.90;;;;;;1951490;72;22110;-76
2023/07/06 02:37:04;;;;;;;3.02;1.20;;;20.00;99.90;;;;;;1946116;72;22522;-74
2023/07/06 02:39:58;;;;;;;2.33;1.47;;;20.00;99.90;;;;;;1926888;73;21150;-76
2023/07/06 02:42:49;;;;;;;2.90;1.37;;;19.90;99.90;;;;;;1933119;73;21211;-76
2023/07/06 02:45:40;;;;;;;3.75;1.67;;;19.90;99.90;;;;;;1925956;73;21111;-75
2023/07/06 02:48:32;;;;;;;1.55;1.10;;;19.90;99.90;;;;;;1917099;74;21096;-75
2023/07/06 02:51:23;;;;;;;2.65;1.40;;;19.80;99.90;;;;;;1935535;73;21099;-75
2023/07/06 02:54:15;;;;;;;4.03;1.40;;;19.90;99.90;;;;;;1930563;73;21163;-75
2023/07/06 02:57:07;;;;;;;1.52;1.10;;;19.90;99.90;;;;;;1923871;73;21204;-75
2023/07/06 02:59:59;;;;;;;1.47;1.15;;;19.80;99.90;;;;;;1934855;73;21091;-75
2023/07/06 03:02:53;;;;;;;2.12;1.47;;;19.60;99.90;;;;;;1925034;73;21083;-75
2023/07/06 03:05:46;;;;;;;1.90;1.30;;;19.50;99.90;;;;;;1942212;73;21163;-75
2023/07/06 03:08:38;;;;;;;1.55;1.27;;;19.50;99.90;;;;;;1937295;73;21108;-75
2023/07/06 03:11:30;;;;;;;2.25;1.50;;;19.40;99.90;;;;;;1917249;73;21090;-75
2023/07/06 03:14:24;;;;;;;2.00;1.35;;;19.40;99.90;;;;;;1936194;73;21117;-75
2023/07/06 03:17:17;;;;;;;2.22;1.30;;;19.40;99.90;;;;;;1935596;73;21094;-75
2023/07/06 03:20:14;;;;;;;2.05;1.30;;;19.40;99.90;;;;;;1925466;73;21169;-74
2023/07/06 03:25:44;;;;;;;3.45;1.35;;;19.40;99.90;;;;;;1940470;72;22253;-74
2023/07/06 03:28:35;;;;;;;1.90;1.50;;;19.40;99.90;;;;;;1899836;75;21178;-76
2023/07/06 03:31:29;;;;;;;1.70;1.40;;;19.40;99.90;;;;;;1909804;74;21184;-75
2023/07/06 03:37:02;;;;;;;3.37;1.32;;;19.50;99.90;;;;;;1948254;72;22209;-75
2023/07/06 03:39:53;;;;;;;1.80;1.52;;;19.40;99.90;;;;;;1926749;73;21181;-74
2023/07/06 03:45:24;;;;;;;2.30;1.50;;;19.40;99.90;;;;;;1933739;72;22188;-74
2023/07/06 03:48:16;;;;;;;2.65;1.60;;;19.40;99.90;;;;;;1895767;75;21063;-74
2023/07/06 03:51:08;;;;;;;3.20;1.70;;;19.50;99.90;;;;;;1883716;75;21164;-74
2023/07/06 03:54:00;;;;;;;3.35;2.17;;;19.40;99.90;;;;;;1903334;75;21173;-74
2023/07/06 03:59:36;;;;;;;2.90;1.70;;;19.50;99.90;;;;;;1938149;72;22123;-74
2023/07/06 04:02:27;;;;;;;2.00;1.72;;;19.50;99.90;;;;;;1902564;75;21131;-74
2023/07/06 04:05:22;;;;;;;2.62;1.50;;;19.60;99.90;;;;;;1891930;75;21106;-74
2023/07/06 04:08:16;;;;;;;3.92;1.60;;;19.60;99.90;;;;;;1905135;75;21158;-73
2023/07/06 04:11:08;;;;;;;2.05;1.60;;;19.50;99.90;;;;;;1898703;75;21132;-75
2023/07/06 04:16:40;;;;;;;3.12;1.67;;;19.60;99.90;;;;;;1946378;72;22156;-74
2023/07/06 04:22:10;;;;;;;2.90;1.47;;;19.60;99.90;;;;;;1954707;72;22675;-74
2023/07/06 04:25:02;;;;;;;2.27;1.70;;;19.60;99.90;;;;;;1934054;73;21103;-74
2023/07/06 04:27:54;;;;;;;3.60;1.50;;;19.60;99.90;;;;;;1946967;73;21081;-74
2023/07/06 04:30:47;;;;;;;2.90;1.70;;;19.70;99.90;;;;;;1943060;73;21107;-74
2023/07/06 04:33:38;;;;;;;1.87;1.45;;;19.70;99.90;;;;;;1920632;73;21119;-74
2023/07/06 04:36:31;;;;;;;4.25;1.80;;;19.70;99.90;;;;;;1917939;73;21101;-74
2023/07/06 04:42:03;;;;;;;2.17;1.45;;;19.70;99.90;;;;;;1925467;72;22190;-74
2023/07/06 04:44:55;;;;;;;3.52;1.60;;;19.70;99.90;;;;;;1897151;74;21573;-74
2023/07/06 04:47:51;;;;;;;2.67;1.65;;;19.70;99.90;;;;;;1907134;74;21166;-74
2023/07/06 04:50:42;;;;;;;4.42;1.85;;;19.70;99.90;;;;;;1912275;75;21129;-74
2023/07/06 04:53:33;;;;;;;1.87;1.50;;;19.70;99.90;;;;;;1917931;74;21175;-75
2023/07/06 04:56:24;;;;;;;4.20;1.98;;;19.80;99.90;;;;;;1897745;73;21098;-74
2023/07/06 04:59:17;;;;;;;2.98;1.70;;;19.80;99.90;;;;;;1899838;75;21167;-74
2023/07/06 05:04:51;;;;;;;2.92;1.50;;;19.90;99.90;;;;;;1943585;72;22254;-76
2023/07/06 05:10:21;;;;;;;3.22;1.80;;;19.90;99.90;;;;;;1949566;72;22174;-74
2023/07/06 05:15:54;;;;;;;2.95;1.80;;;20.00;99.90;;;;;;1947996;72;22153;-74
2023/07/06 05:18:48;;;;;;;6.00;1.60;;;20.10;99.90;;;;;;1907842;74;21118;-74
2023/07/06 05:21:39;;;;;;;5.37;1.77;;;20.10;99.90;;;;;;1903916;75;21082;-74
2023/07/06 05:24:30;;;;;;;2.72;1.80;;;20.20;99.90;;;;;;1897490;75;21066;-74
2023/07/06 05:30:11;;;;;;;3.42;1.37;;;20.20;99.90;;;;;;1944356;72;20183;-76
2023/07/06 05:35:42;;;;;;;3.37;1.90;;;20.10;99.90;;;;;;1944036;72;22487;-75
2023/07/06 05:38:34;;;;;;;3.42;1.77;;;20.20;99.90;;;;;;1911568;75;21168;-76
2023/07/06 05:41:25;;;;;;;3.25;1.72;;;20.20;99.90;;;;;;1893173;75;21140;-75
2023/07/06 05:44:17;;;;;;;6.95;1.85;;;20.20;99.90;;;;;;1869032;76;21135;-75
2023/07/06 05:49:48;;;;;;;2.25;1.67;;;20.40;99.90;;;;;;1931111;72;22236;-74
2023/07/06 05:52:40;;;;;;;2.55;1.77;;;20.30;99.90;;;;;;1897550;75;21146;-74
2023/07/06 05:55:31;;;;;;;3.65;1.82;;;20.30;99.90;;;;;;1894535;75;21592;-73
2023/07/06 05:58:22;;;;;;;4.97;1.70;;;20.30;99.90;;;;;;1902880;75;21209;-73
2023/07/06 06:01:14;;;;;;;4.42;1.42;;;20.40;99.90;;;;;;1894526;73;21569;-74
2023/07/06 06:04:16;;;;;;;5.33;1.67;;;20.40;99.90;;;;;;1897118;75;21534;-74
2023/07/06 06:09:48;;;;;;;3.45;1.87;;;20.50;99.90;;;;;;1935959;72;22275;-74
2023/07/06 06:12:39;;;;;;;2.15;1.60;;;20.50;99.90;;;;;;1886994;75;21191;-74
2023/07/06 06:15:31;;;;;;;2.33;1.60;;;20.60;99.90;;;;;;1893380;75;21099;-74
2023/07/06 06:18:22;;;;;;;3.02;1.80;;;20.70;99.90;;;;;;1885096;75;21213;-74
2023/07/06 06:21:14;;;;;;;3.35;1.80;;;20.80;99.90;;;;;;1883585;75;21200;-73
2023/07/06 06:26:45;;;;;;;3.02;1.67;;;20.80;99.90;;;;;;1952052;72;22274;-73
2023/07/06 06:29:36;;;;;;;4.05;1.98;;;20.80;99.90;;;;;;1916692;75;21560;-79
2023/07/06 06:32:29;;;;;;;4.03;1.65;;;20.90;99.90;;;;;;1923747;73;21620;-80
2023/07/06 06:35:25;;;;;;;5.12;2.10;;;20.90;99.90;;;;;;1919791;73;21088;-79
2023/07/06 06:38:18;;;;;;;2.00;1.60;;;21.00;99.90;;;;;;1926968;73;21543;-79
2023/07/06 06:43:50;;;;;;;2.30;1.55;;;21.10;99.90;;;;;;1931980;72;22126;-80
2023/07/06 06:46:41;;;;;;;2.60;1.92;;;21.10;99.90;;;;;;1883209;75;21218;-78
2023/07/06 06:49:34;;;;;;;2.52;1.52;;;21.30;99.90;;;;;;1903889;75;21426;-79
2023/07/06 06:52:25;;;;;;;5.50;1.80;;;21.30;99.90;;;;;;1894915;75;21090;-79
2023/07/06 06:55:17;;;;;;;4.90;3.00;;;21.30;99.90;;;;;;1890206;75;21602;-80
2023/07/06 06:58:08;;;;;;;2.92;1.95;;;21.40;99.90;;;;;;1901493;74;21153;-79
2023/07/06 07:01:02;;;;;;;3.95;1.72;;;21.40;99.90;;;;;;1918113;74;21117;-80
2023/07/06 07:03:53;;;;;;;4.33;2.02;;;21.40;99.90;;;;;;1905218;75;21581;-80
2023/07/06 07:09:27;;;;;;;2.67;1.80;;;21.50;99.90;;;;;;1942260;72;22155;-80
2023/07/06 07:14:58;;;;;;;3.55;1.92;;;21.60;99.90;;;;;;1944545;72;22173;-80
2023/07/06 07:17:51;;;;;;;3.50;1.50;;;21.70;99.90;;;;;;1916787;73;21232;-80
2023/07/06 07:21:01;;;;;;;2.27;1.47;;;21.70;99.90;;;;;;1913975;75;22057;-80
2023/07/06 07:26:44;;;;;;;3.67;1.95;;;21.80;99.90;;;;;;1941994;72;22202;-80
2023/07/06 07:29:36;;;;;;;4.08;1.72;;;21.80;99.90;;;;;;1902893;75;21068;-81
2023/07/06 07:32:29;;;;;;;2.67;2.12;;;21.90;99.90;;;;;;1890674;75;21228;-80
2023/07/06 07:35:21;;;;;;;2.00;1.50;;;21.90;99.90;;;;;;1902243;75;21132;-80
2023/07/06 07:38:13;;;;;;;2.17;1.80;;;21.90;99.90;;;;;;1894568;75;21194;-80
2023/07/06 07:41:06;;;;;;;3.95;1.60;;;22.00;99.90;;;;;;1895967;75;21106;-81
2023/07/06 07:43:58;;;;;;;2.80;1.77;;;22.00;99.90;;;;;;1893304;75;21175;-80
2023/07/06 07:46:50;;;;;;;3.67;1.70;;;22.10;99.90;;;;;;1893022;75;21099;-80
2023/07/06 07:49:42;;;;;;;4.33;1.65;;;22.20;99.90;;;;;;1902447;75;21087;-80
2023/07/06 07:55:12;;;;;;;4.53;1.70;;;22.40;99.90;;;;;;1938141;72;22115;-80
2023/07/06 07:58:04;;;;;;;1.60;1.40;;;22.40;99.90;;;;;;1893002;75;21141;-80
2023/07/06 08:00:56;;;;;;;2.45;1.60;;;22.50;99.90;;;;;;1896383;75;21102;-79
2023/07/06 08:03:48;;;;;;;2.80;1.90;;;22.60;99.90;;;;;;1894698;75;21164;-80
2023/07/06 08:09:20;;;;;;;4.28;1.67;;;22.60;99.90;;;;;;1934360;72;22622;-80
2023/07/06 08:12:12;;;;;;;2.17;1.70;;;22.60;99.90;;;;;;1892669;75;21104;-80
2023/07/06 08:15:06;;;;;;;3.27;1.80;;;22.60;99.90;;;;;;1904234;75;21660;-80
2023/07/06 08:18:00;;;;;;;2.08;1.47;;;22.60;99.90;;;;;;1893796;75;21154;-80
2023/07/06 08:20:53;;;;;;;2.52;1.90;;;22.60;99.90;;;;;;1905406;75;21106;-80
2023/07/06 08:23:50;;;;;;;1.98;1.75;;;22.60;99.90;;;;;;1914436;75;21071;-81
2023/07/06 08:26:41;;;;;;;3.70;1.87;;;22.50;99.90;;;;;;1896209;75;21146;-81
2023/07/06 08:32:15;;;;;;;6.17;1.77;;;22.60;99.90;;;;;;1927910;72;22219;-80
2023/07/06 08:35:06;;;;;;;5.00;2.17;;;22.60;99.90;;;;;;1905954;75;21087;-80
2023/07/06 08:38:04;;;;;;;3.50;2.22;;;22.70;99.90;;;;;;1885040;75;21103;-80
2023/07/06 08:43:34;;;;;;;1.92;1.40;;;23.00;99.90;;;;;;1934614;72;22130;-79
2023/07/06 08:46:34;;;;;;;3.58;1.72;;;22.90;99.90;;;;;;1907504;74;21201;-80
2023/07/06 08:49:32;;;;;;;2.95;1.70;;;22.90;99.90;;;;;;1897513;74;21106;-80
2023/07/06 08:52:24;;;;;;;2.70;1.85;;;23.00;99.90;;;;;;1916995;74;21686;-80
2023/07/06 08:55:17;;;;;;;4.15;1.57;;;23.10;99.90;;;;;;1905613;75;21103;-81
2023/07/06 09:00:49;;;;;;;3.02;1.62;;;23.10;99.90;;;;;;1942804;72;22689;-80
2023/07/06 09:06:29;;;;;;;3.58;1.67;;;23.20;99.90;;;;;;1933536;72;22625;-80
2023/07/06 09:09:21;;;;;;;3.15;1.55;;;23.30;99.90;;;;;;1901814;75;21526;-80
2023/07/06 09:14:58;;;;;;;4.10;1.70;;;23.50;99.90;;;;;;1928608;72;22142;-80
2023/07/06 09:17:51;;;;;;;2.30;1.80;;;23.50;99.90;;;;;;1879241;75;21202;-80
2023/07/06 09:23:24;;;;;;;3.02;1.77;;;23.60;99.90;;;;;;1937615;72;22185;-81
2023/07/06 09:26:22;;;;;;;3.08;1.60;;;23.60;99.90;;;;;;1913861;75;21160;-80
2023/07/06 09:29:20;;;;;;;3.92;2.00;;;23.60;99.90;;;;;;1883842;76;21134;-80
2023/07/06 09:34:59;;;;;;;2.80;1.67;;;23.70;99.90;;;;;;1960045;72;22225;-80
2023/07/06 09:37:52;;;;;;;2.55;1.85;;;23.70;99.90;;;;;;1938863;73;21529;-80
2023/07/06 09:40:44;;;;;;;2.98;1.72;;;23.70;99.90;;;;;;1916707;75;21177;-80
2023/07/06 09:46:15;;;;;;;4.17;1.60;;;23.80;99.90;;;;;;1945520;72;22754;-80
2023/07/06 09:49:12;;;;;;;2.67;1.80;;;23.90;99.90;;;;;;1887288;75;21121;-80
2023/07/06 09:54:46;;;;;;;2.58;1.52;;;23.90;99.90;;;;;;1929537;72;22168;-80
2023/07/06 09:57:40;;;;;;;4.22;1.57;;;23.90;99.90;;;;;;1898149;75;21114;-80
2023/07/06 10:00:35;;;;;;;2.92;1.45;;;24.00;99.90;;;;;;1884051;75;21102;-80
2023/07/06 10:06:21;;;;;;;3.05;1.30;;;24.20;99.90;;;;;;1950789;72;22134;-80
2023/07/06 10:09:16;;;;;;;2.67;1.37;;;24.40;99.90;;;;;;1901229;74;21120;-80
2023/07/06 10:12:14;;;;;;;1.52;1.30;;;24.50;99.90;;;;;;1890370;75;21207;-81
2023/07/06 10:15:11;;;;;;;2.62;1.50;;;24.60;99.90;;;;;;1907371;75;21110;-81
2023/07/06 10:20:47;;;;;;;2.67;1.40;;;24.60;99.90;;;;;;1943310;72;23288;-81
2023/07/06 10:23:44;;;;;;;1.52;1.30;;;24.50;99.90;;;;;;1923563;73;21739;-80
2023/07/06 10:26:37;;;;;;;1.80;1.40;;;24.60;99.90;;;;;;1916604;75;21146;-80
2023/07/06 10:29:32;;;;;;;2.80;1.35;;;24.70;99.90;;;;;;1917052;73;21168;-80
2023/07/06 10:35:07;;;;;;;2.33;1.47;;;25.00;99.90;;;;;;1930085;72;22243;-80
2023/07/06 10:40:38;;;;;;;2.58;1.37;;;25.10;99.90;;;;;;1940724;72;22237;-80
2023/07/06 10:46:30;;;;;;;2.50;1.70;;;25.30;99.90;;;;;;1938091;72;22274;-81
2023/07/06 10:49:23;;;;;;;3.87;1.10;;;25.30;99.90;;;;;;1900478;75;21592;-81
2023/07/06 10:52:15;;;;;;;3.15;1.67;;;25.30;99.90;;;;;;1896752;75;21114;-80
2023/07/06 10:55:11;;;;;;;2.58;1.50;;;25.40;99.90;;;;;;1883207;75;21057;-80
2023/07/06 10:58:18;;;;;;;6.58;1.75;;;25.40;99.90;;;;;;1890772;75;21530;-80
2023/07/06 11:01:11;;;;;;;3.20;1.70;;;25.40;99.90;;;;;;1907227;73;21099;-79
2023/07/06 11:06:55;;;;;;;2.17;1.40;;;25.70;99.90;;;;;;1954269;72;22689;-80
2023/07/06 11:09:50;;;;;;;3.37;1.37;;;25.90;99.90;;;;;;1904767;74;21143;-80
2023/07/06 11:12:54;;;;;;;2.33;1.40;;;25.90;99.90;;;;;;1904053;75;21128;-80
2023/07/06 11:15:59;;;;;;;2.98;1.30;;;26.00;99.90;;;;;;1921527;74;21165;-80
2023/07/06 11:18:55;;;;;;;2.25;1.20;;;26.00;99.90;;;;;;1905749;74;21067;-79
2023/07/06 11:24:34;;;;;;;2.27;1.47;;;25.90;99.90;;;;;;1926932;72;22260;-80
2023/07/06 11:30:14;;;;;;;2.37;1.30;;;26.10;99.90;;;;;;1944400;72;22192;-81
2023/07/06 11:33:18;;;;;;;2.62;1.10;;;26.20;99.90;;;;;;1931229;73;21098;-81
2023/07/06 11:36:12;;;;;;;3.45;1.30;;;26.30;99.90;;;;;;1933371;73;21110;-80
2023/07/06 11:41:53;;;;;;;2.12;1.00;;;26.40;99.90;;;;;;1946305;72;22182;-80
2023/07/06 11:44:50;;;;;;;1.75;1.20;;;26.40;99.90;;;;;;1897075;75;21187;-80
2023/07/06 11:47:53;;;;;;;2.47;1.22;;;26.60;99.90;;;;;;1878712;75;21200;-80
2023/07/06 11:53:54;;;;;;;1.35;1.07;;;26.60;99.90;;;;;;1936177;72;22244;-79
2023/07/06 11:56:50;;;;;;;1.50;1.12;;;26.70;99.90;;;;;;1915221;74;21165;-81
2023/07/06 11:59:37;;;;;;;1.85;1.40;;;26.90;99.90;;;;;;1897734;75;21173;-81
2023/07/06 12:02:31;;;;;;;1.75;1.10;;;27.00;99.90;;;;;;1913259;75;21217;-79
2023/07/06 12:05:27;;;;;;;1.32;1.12;;;27.10;99.90;;;;;;1894715;74;21062;-79
2023/07/06 12:08:23;;;;;;;1.77;1.17;;;27.20;99.90;;;;;;1916571;75;21102;-80
2023/07/06 12:11:19;;;;;;;1.98;1.50;;;27.30;99.90;;;;;;1923857;74;21123;-79
2023/07/06 12:14:20;;;;;;;1.95;1.25;;;27.30;99.90;;;;;;1907387;75;21171;-80
2023/07/06 12:19:51;;;;;;;1.52;1.27;;;27.40;99.90;;;;;;1970663;72;22174;-79
2023/07/06 12:25:31;;;;;;;1.72;1.17;;;27.50;99.90;;;;;;1918894;72;22667;-79
2023/07/06 12:28:24;;;;;;;1.57;1.10;;;27.60;99.90;;;;;;1893326;75;21137;-79
2023/07/06 12:33:58;;;;;;;1.27;0.90;;;27.70;99.90;;;;;;1926295;72;22234;-80
2023/07/06 12:39:34;;;;;;;1.60;1.22;;;27.60;99.90;;;;;;1944954;72;22539;-79
2023/07/06 12:45:09;;;;;;;2.00;1.30;;;27.80;99.90;;;;;;1932999;72;22225;-79
2023/07/06 12:48:05;;;;;;;1.10;0.98;;;28.00;99.90;;;;;;1889508;74;21152;-79
2023/07/06 12:50:59;;;;;;;1.17;1.05;;;28.00;99.90;;;;;;1878549;75;21554;-79
2023/07/06 12:53:51;;;;;;;2.75;1.40;;;28.00;99.90;;;;;;1901629;75;21609;-79
2023/07/06 12:56:44;;;;;;;3.37;1.15;;;28.00;99.90;;;;;;1884690;75;21172;-79
2023/07/06 12:59:37;;;;;;;3.85;1.45;;;28.00;99.90;;;;;;1912278;75;21363;-80
2023/07/06 13:02:31;;;;;;;1.98;1.10;;;28.00;99.90;;;;;;1938003;73;21151;-80
2023/07/06 13:08:08;;;;;;;2.22;1.10;;;28.10;99.90;;;;;;1958639;72;22231;-80
2023/07/06 13:11:02;;;;;;;2.75;1.32;;;28.10;99.90;;;;;;1943135;73;21159;-79
2023/07/06 13:16:41;;;;;;;3.15;1.50;;;28.40;99.90;;;;;;1935345;72;22675;-80
2023/07/06 13:19:35;;;;;;;3.05;1.25;;;28.60;99.90;;;;;;1883975;75;21079;-80
2023/07/06 13:25:17;;;;;;;4.08;1.40;;;28.90;99.90;;;;;;1932951;72;22235;-79
2023/07/06 13:28:09;;;;;;;2.10;1.32;;;28.90;99.90;;;;;;1888896;75;21176;-81
2023/07/06 13:31:00;;;;;;;1.98;1.10;;;28.90;99.90;;;;;;1899332;75;21176;-80
2023/07/06 13:33:52;;;;;;;3.92;1.42;;;29.00;99.90;;;;;;1894620;75;21047;-80
2023/07/06 13:36:45;;;;;;;2.42;1.20;;;29.10;99.90;;;;;;1889268;75;21162;-80
2023/07/06 13:39:59;;;;;;;1.57;1.42;;;29.00;99.90;;;;;;1905115;75;21110;-81
2023/07/06 13:42:53;;;;;;;2.75;1.42;;;29.10;99.90;;;;;;1902910;75;21090;-79
2023/07/06 13:45:53;;;;;;;5.72;1.40;;;29.20;99.90;;;;;;1898192;75;21164;-80
2023/07/06 13:53:07;;;;;;;2.37;1.17;;;29.60;99.40;;;;;;1823595;75;21123;-80
2023/07/06 14:11:02;;;;;;;2.62;1.60;;;30.60;89.50;;;;;;1910853;73;21204;-82
2023/07/06 14:17:02;;;;;;;3.70;1.70;;;31.20;85.40;;;;;;1956678;72;22166;-79
2023/07/06 14:19:54;;;;;;;3.55;1.80;;;31.20;81.60;;;;;;1900640;75;21710;-80
2023/07/06 14:22:47;;;;;;;3.33;1.70;;;31.30;82.20;;;;;;1895963;75;21106;-80
2023/07/06 14:25:39;;;;;;;2.10;1.70;;;31.50;82.40;;;;;;1908348;75;21113;-80
2023/07/06 14:28:32;;;;;;;2.90;1.62;;;31.60;81.00;;;;;;1883274;75;21119;-80
2023/07/06 14:31:27;;;;;;;3.17;1.62;;;31.80;82.00;;;;;;1883579;75;21500;-80
2023/07/06 14:34:22;;;;;;;3.52;1.60;;;32.00;81.30;;;;;;1891340;75;21532;-80
2023/07/06 14:37:10;;;;;;;4.00;2.05;;;31.90;81.10;;;;;;1894450;75;21129;-80
2023/07/06 14:40:02;;;;;;;3.60;1.65;;;32.40;79.00;;;;;;1889364;75;21169;-80
2023/07/06 14:42:56;;;;;;;3.90;2.05;;;32.70;77.70;;;;;;1905128;75;21171;-81
2023/07/06 14:45:47;;;;;;;3.30;2.02;;;32.30;73.20;;;;;;1883800;76;21091;-81
2023/07/06 14:48:39;;;;;;;3.00;1.70;;;31.50;74.30;;;;;;1896266;75;21084;-79
2023/07/06 14:51:32;;;;;;;3.98;1.90;;;31.10;75.30;;;;;;1894559;75;21099;-81
2023/07/06 14:54:25;;;;;;;3.35;1.90;;;30.60;74.80;;;;;;1894486;75;21114;-80
2023/07/06 14:57:18;;;;;;;3.42;1.80;;;30.40;75.10;;;;;;1897646;75;21577;-80
2023/07/06 15:00:12;;;;;;;2.33;1.52;;;30.20;76.40;;;;;;1883633;75;21115;-80
2023/07/06 15:03:05;;;;;;;3.98;1.87;;;30.00;76.60;;;;;;1893226;75;21734;-80
2023/07/06 15:06:04;;;;;;;4.25;1.85;;;29.80;77.50;;;;;;1893878;75;21578;-79
2023/07/06 15:08:55;;;;;;;3.45;1.92;;;29.70;77.80;;;;;;1894537;75;21102;-80
2023/07/06 15:11:47;;;;;;;3.67;1.90;;;29.50;78.00;;;;;;1899241;75;21110;-80
2023/07/06 15:14:38;;;;;;;2.52;1.42;;;29.40;78.70;;;;;;1895378;75;21106;-80
2023/07/06 15:17:30;;;;;;;2.80;1.62;;;29.20;79.10;;;;;;1886350;75;21139;-81
2023/07/06 15:20:21;;;;;;;5.62;1.55;;;29.00;78.80;;;;;;1883102;75;21153;-80
2023/07/06 15:23:13;;;;;;;3.10;1.77;;;29.00;78.30;;;;;;1902618;75;21096;-80
2023/07/06 15:28:45;;;;;;;2.17;1.40;;;28.80;78.90;;;;;;1945547;72;22509;-80
2023/07/06 15:31:36;;;;;;;1.85;1.37;;;28.80;79.80;;;;;;1917067;75;21187;-80
2023/07/06 15:34:28;;;;;;;4.70;1.70;;;28.70;80.10;;;;;;1933786;73;21192;-80
2023/07/06 15:37:19;;;;;;;2.52;1.47;;;28.60;81.10;;;;;;1916589;75;21126;-80
2023/07/06 15:40:24;;;;;;;4.67;1.62;;;28.50;82.10;;;;;;1916502;75;21245;-80
2023/07/06 15:43:17;;;;;;;4.37;1.70;;;28.50;82.70;;;;;;1916472;75;21575;-80
2023/07/06 15:46:08;;;;;;;3.20;1.45;;;28.50;83.40;;;;;;1881187;76;21166;-80
2023/07/06 15:49:02;;;;;;;3.40;1.75;;;28.50;84.20;;;;;;1926466;74;21157;-80
2023/07/06 15:51:54;;;;;;;3.47;1.52;;;28.60;85.10;;;;;;1916469;75;21067;-80
2023/07/06 15:54:45;;;;;;;7.10;1.77;;;28.60;85.90;;;;;;1916868;75;21113;-81
2023/07/06 15:57:37;;;;;;;4.05;1.77;;;28.80;85.90;;;;;;1916458;75;21578;-80
2023/07/06 16:00:30;;;;;;;2.80;1.50;;;29.20;85.80;;;;;;1916569;75;21127;-80
2023/07/06 16:03:22;;;;;;;5.20;1.92;;;29.60;86.50;;;;;;1916822;75;21060;-80
2023/07/06 16:06:14;;;;;;;2.58;1.50;;;30.40;86.50;;;;;;1939415;73;21111;-80
2023/07/06 16:09:06;;;;;;;5.22;1.82;;;30.80;82.80;;;;;;1916408;74;21523;-81
2023/07/06 16:11:58;;;;;;;3.15;1.77;;;31.10;82.30;;;;;;1916653;75;21118;-81
2023/07/06 16:14:49;;;;;;;2.62;1.57;;;31.00;83.80;;;;;;1916829;75;21075;-80
2023/07/06 16:17:41;;;;;;;2.65;1.87;;;30.70;83.10;;;;;;1916889;75;21221;-80
2023/07/06 16:20:34;;;;;;;3.85;1.80;;;30.40;85.00;;;;;;1916807;75;21467;-80
2023/07/06 16:23:25;;;;;;;4.78;1.65;;;30.10;84.60;;;;;;1916903;75;21143;-80
2023/07/06 16:26:19;;;;;;;3.35;1.92;;;29.90;83.60;;;;;;1916688;75;21143;-80
2023/07/06 16:29:11;;;;;;;3.02;1.85;;;29.90;84.10;;;;;;1923875;74;21574;-80
2023/07/06 16:32:02;;;;;;;3.15;1.87;;;30.10;84.70;;;;;;1926104;74;21103;-80
2023/07/06 16:34:55;;;;;;;3.15;1.57;;;30.20;84.40;;;;;;1927649;73;21118;-80
2023/07/06 16:37:46;;;;;;;4.75;1.82;;;30.00;85.30;;;;;;1941151;73;21122;-80
2023/07/06 16:40:37;;;;;;;3.22;1.87;;;30.40;84.40;;;;;;1934592;74;21206;-80
2023/07/06 16:43:29;;;;;;;2.92;1.60;;;30.90;84.00;;;;;;1925406;74;21591;-80
2023/07/06 16:46:20;;;;;;;4.03;1.98;;;31.50;82.70;;;;;;1925711;74;21081;-80
2023/07/06 16:49:12;;;;;;;3.70;1.90;;;31.20;83.10;;;;;;1925932;74;21117;-79
2023/07/06 16:52:04;;;;;;;3.70;1.80;;;30.50;84.10;;;;;;1925649;74;21090;-81
2023/07/06 16:54:55;;;;;;;3.77;1.60;;;30.10;85.60;;;;;;1925571;74;21338;-81
2023/07/06 16:57:47;;;;;;;4.05;1.90;;;29.60;87.30;;;;;;1925564;74;21227;-81
2023/07/06 17:00:38;;;;;;;2.87;1.62;;;29.40;88.40;;;;;;1925633;74;21098;-82
2023/07/06 17:03:31;;;;;;;4.58;1.60;;;29.20;90.50;;;;;;1895195;75;21094;-81
2023/07/06 17:06:23;;;;;;;3.30;1.65;;;29.00;91.20;;;;;;1938533;73;21199;-81
2023/07/06 17:09:14;;;;;;;3.12;1.90;;;29.00;91.90;;;;;;1915849;75;21110;-80
2023/07/06 17:12:08;;;;;;;4.28;1.87;;;29.00;92.10;;;;;;1916141;75;21109;-80
2023/07/06 17:15:00;;;;;;;4.58;1.77;;;29.20;92.60;;;;;;1916311;75;21566;-80
2023/07/06 17:17:55;;;;;;;2.60;1.50;;;29.40;92.30;;;;;;1929284;73;21101;-80
2023/07/06 17:20:46;;;;;;;1.87;1.65;;;29.60;92.60;;;;;;1919080;73;21639;-80
2023/07/06 17:23:40;;;;;;;2.92;1.67;;;29.70;92.50;;;;;;1915706;75;21109;-80
2023/07/06 17:26:32;;;;;;;2.35;1.60;;;29.90;92.40;;;;;;1915991;75;21144;-80
2023/07/06 17:29:24;;;;;;;2.95;1.67;;;30.10;92.10;;;;;;1925339;74;21157;-80
2023/07/06 17:32:16;;;;;;;3.42;1.65;;;30.20;91.80;;;;;;1914504;74;21094;-80
2023/07/06 17:35:08;;;;;;;4.30;1.77;;;30.10;91.30;;;;;;1909989;74;21220;-80
2023/07/06 17:38:00;;;;;;;2.77;1.52;;;30.20;91.40;;;;;;1938388;73;21106;-80
2023/07/06 17:40:58;;;;;;;3.80;1.65;;;30.10;91.30;;;;;;1916354;75;21246;-80
2023/07/06 17:43:50;;;;;;;3.15;1.80;;;30.10;92.00;;;;;;1916673;74;21055;-80
2023/07/06 17:46:41;;;;;;;5.80;2.08;;;30.60;93.00;;;;;;1919940;73;21195;-80
2023/07/06 17:49:33;;;;;;;4.62;1.87;;;31.10;93.00;;;;;;1903636;75;21055;-80
2023/07/06 17:52:25;;;;;;;6.10;2.02;;;31.20;92.80;;;;;;1903274;75;21159;-80
2023/07/06 17:55:20;;;;;;;4.05;1.77;;;30.70;93.50;;;;;;1903287;75;21186;-80
2023/07/06 17:58:10;;;;;;;4.97;2.10;;;30.90;93.50;;;;;;1916303;75;21122;-80
2023/07/06 18:01:02;;;;;;;2.37;1.75;;;31.30;92.80;;;;;;1916153;75;21138;-80
2023/07/06 18:03:53;;;;;;;3.12;1.80;;;30.90;92.90;;;;;;1903888;75;21083;-80
2023/07/06 18:06:45;;;;;;;4.87;3.37;;;30.80;93.30;;;;;;1903698;75;21134;-80
2023/07/06 18:09:37;;;;;;;5.33;2.40;;;30.60;94.10;;;;;;1936896;74;21144;-80
2023/07/06 18:12:28;;;;;;;7.17;2.35;;;30.50;94.40;;;;;;1944259;73;21171;-80
2023/07/06 18:15:20;;;;;;;3.58;2.02;;;30.50;93.90;;;;;;1916095;73;21164;-80
2023/07/06 18:18:11;;;;;;;3.85;2.17;;;30.30;94.20;;;;;;1903960;75;21576;-80